Time;durP1;ratioP1;P1;durP2;ratioP2;P2;SDS_P1;SDS_P2;PMS_P1;PMS_P2;Temp;Humidity;BMP_temperature;BMP_pressure;BME280_temperature;BME280_humidity;BME280_pressure;Samples;Min_cycle;Max_cycle;Signal;HPM_P1;HPM_P2
2022/03/13 00:00:47;;;;;;;37.55;17.10;;;;;;;-3.70;48.16;98724.84;1664694;85;20995;-83
2022/03/13 00:03:17;;;;;;;39.42;17.52;;;;;;;-3.67;48.11;98722.78;1662441;85;21459;-90
2022/03/13 00:05:48;;;;;;;39.08;17.77;;;;;;;-3.69;48.28;98716.66;1664602;85;21770;-91
2022/03/13 00:08:30;;;;;;;39.13;17.40;;;;;;;-3.66;47.93;98720.68;1662179;85;21017;-83
2022/03/13 00:11:09;;;;;;;42.85;16.20;;;;;;;-3.63;47.84;98724.27;1662042;85;21026;-83
2022/03/13 00:13:41;;;;;;;36.85;18.07;;;;;;;-3.70;47.70;98719.66;1663084;85;20984;-84
2022/03/13 00:16:08;;;;;;;34.05;16.55;;;;;;;-3.75;47.83;98724.67;1663100;86;21007;-83
2022/03/13 00:18:39;;;;;;;40.55;17.77;;;;;;;-3.77;48.18;98726.73;1674375;85;21024;-84
2022/03/13 00:21:06;;;;;;;37.65;17.40;;;;;;;-3.78;48.21;98722.38;1720412;83;21007;-84
2022/03/13 00:23:35;;;;;;;37.83;16.48;;;;;;;-3.74;48.32;98724.27;1683996;85;21096;-84
2022/03/13 00:26:03;;;;;;;36.55;16.62;;;;;;;-3.74;48.00;98716.50;1721177;83;21064;-84
2022/03/13 00:28:30;;;;;;;34.53;16.23;;;;;;;-3.73;48.25;98714.38;1698821;83;20976;-84
2022/03/13 00:30:59;;;;;;;36.30;17.55;;;;;;;-3.71;48.23;98708.43;1698033;84;21024;-84
2022/03/13 00:33:27;;;;;;;39.80;18.17;;;;;;;-3.65;48.32;98706.89;1715053;83;21005;-84
2022/03/13 00:35:53;;;;;;;35.45;16.40;;;;;;;-3.61;48.48;98705.77;1721353;83;21032;-85
2022/03/13 00:38:22;;;;;;;40.08;17.52;;;;;;;-3.59;48.95;98698.95;1684286;85;21001;-85
2022/03/13 00:40:51;;;;;;;41.83;17.98;;;;;;;-3.52;48.44;98700.47;1721453;83;21009;-84
2022/03/13 00:43:16;;;;;;;37.78;16.35;;;;;;;-3.51;48.33;98700.94;1721177;82;22108;-84
2022/03/13 00:45:43;;;;;;;37.38;16.87;;;;;;;-3.48;48.35;98695.88;1684144;85;21029;-84
2022/03/13 00:48:09;;;;;;;32.05;15.83;;;;;;;-3.45;48.30;98696.88;1721337;83;20997;-84
2022/03/13 00:50:37;;;;;;;39.67;17.35;;;;;;;-3.46;48.46;98698.11;1703636;83;21008;-84
2022/03/13 00:53:04;;;;;;;34.83;16.32;;;;;;;-3.44;48.44;98695.18;1694821;84;21065;-84
2022/03/13 00:55:33;;;;;;;29.77;13.50;;;;;;;-3.40;48.55;98701.35;1693035;85;21040;-84
2022/03/13 00:58:04;;;;;;;33.18;16.25;;;;;;;-3.35;48.72;98683.86;1693746;84;21001;-84
2022/03/13 01:00:29;;;;;;;34.83;15.45;;;;;;;-3.37;48.43;98689.38;1698334;84;21024;-84
2022/03/13 01:02:56;;;;;;;28.45;13.43;;;;;;;-3.36;48.61;98693.73;1699188;84;20992;-84
2022/03/13 01:05:27;;;;;;;29.30;12.82;;;;;;;-3.33;48.42;98684.79;1699131;84;21008;-84
2022/03/13 01:07:56;;;;;;;29.60;12.10;;;;;;;-3.27;48.59;98689.73;1699033;84;21040;-84
2022/03/13 01:10:25;;;;;;;26.95;11.70;;;;;;;-3.26;48.35;98683.31;1699132;84;20988;-84
2022/03/13 01:12:52;;;;;;;22.58;10.85;;;;;;;-3.21;48.18;98682.17;1699110;84;21111;-83
2022/03/13 01:15:20;;;;;;;30.40;11.93;;;;;;;-3.21;48.09;98675.28;1698879;84;21457;-83
2022/03/13 01:17:47;;;;;;;22.45;11.45;;;;;;;-3.19;48.30;98668.43;1695759;84;21064;-84
2022/03/13 01:20:18;;;;;;;28.85;11.60;;;;;;;-3.12;48.05;98669.98;1693029;85;21044;-85
2022/03/13 01:22:45;;;;;;;22.30;11.90;;;;;;;-3.06;48.20;98671.05;1693054;85;21024;-84
2022/03/13 01:25:12;;;;;;;27.27;12.28;;;;;;;-2.99;47.58;98675.19;1688013;85;21021;-84
2022/03/13 01:27:41;;;;;;;26.90;11.53;;;;;;;-2.97;47.46;98658.84;1685755;84;21005;-84
2022/03/13 01:30:10;;;;;;;24.50;12.33;;;;;;;-2.95;47.45;98658.91;1685587;84;21009;-84
2022/03/13 01:32:36;;;;;;;24.20;11.73;;;;;;;-2.92;47.41;98662.88;1685644;85;21057;-84
2022/03/13 01:35:04;;;;;;;23.65;11.75;;;;;;;-2.95;47.70;98655.88;1685528;84;21060;-84
2022/03/13 01:37:38;;;;;;;24.55;11.22;;;;;;;-2.94;47.87;98656.34;1685701;85;21044;-84
2022/03/13 01:40:12;;;;;;;23.50;10.60;;;;;;;-2.93;47.67;98650.75;1685977;84;21048;-84
2022/03/13 01:42:44;;;;;;;;;;;;;;;-2.90;47.09;98656.45;1691450;85;20973;-84
2022/03/13 01:45:14;;;;;;;24.35;11.05;;;;;;;-2.86;47.17;98655.74;1693964;85;20142;-84
2022/03/13 01:47:42;;;;;;;23.35;10.98;;;;;;;-2.87;47.13;98655.28;1693871;85;21529;-84
2022/03/13 01:50:11;;;;;;;23.83;12.53;;;;;;;-2.83;47.17;98657.16;1693704;85;21012;-84
2022/03/13 01:52:47;;;;;;;23.55;11.28;;;;;;;-2.83;47.25;98655.42;1693891;85;21509;-84
2022/03/13 01:55:13;;;;;;;23.65;11.20;;;;;;;-2.86;48.16;98656.60;1694153;85;21077;-84
2022/03/13 01:57:40;;;;;;;25.23;11.55;;;;;;;-2.83;47.14;98648.08;1694030;85;21517;-84
2022/03/13 02:00:10;;;;;;;25.15;11.10;;;;;;;-2.81;47.04;98644.70;1693918;85;21016;-84
2022/03/13 02:02:46;;;;;;;21.27;10.85;;;;;;;-2.77;47.04;98645.69;1668409;85;21056;-85
2022/03/13 02:05:33;;;;;;;23.50;10.58;;;;;;;-2.81;47.35;98649.89;1693746;85;21517;-85
2022/03/13 02:08:03;;;;;;;20.37;10.98;;;;;;;-2.81;47.25;98640.81;1689059;85;21033;-85
2022/03/13 02:10:31;;;;;;;20.20;10.78;;;;;;;-2.81;47.18;98641.22;1690785;84;21009;-84
2022/03/13 02:12:58;;;;;;;19.32;10.23;;;;;;;-2.80;47.60;98640.38;1693866;85;21036;-85
2022/03/13 02:15:29;;;;;;;24.82;11.73;;;;;;;-2.80;47.93;98633.89;1693877;85;21461;-84
2022/03/13 02:18:00;;;;;;;21.25;10.48;;;;;;;-2.80;47.75;98633.89;1693455;84;21051;-85
2022/03/13 02:20:28;;;;;;;25.55;11.43;;;;;;;-2.79;47.77;98630.46;1693945;85;21009;-85
2022/03/13 02:23:05;;;;;;;18.42;9.63;;;;;;;-2.78;48.10;98628.36;1693886;85;21027;-84
2022/03/13 02:25:34;;;;;;;20.70;10.68;;;;;;;-2.79;48.26;98630.46;1700216;83;21047;-84
2022/03/13 02:28:02;;;;;;;23.57;10.95;;;;;;;-2.75;48.23;98617.20;1722426;83;21030;-84
2022/03/13 02:30:29;;;;;;;23.30;11.00;;;;;;;-2.75;47.75;98623.69;1722252;83;21035;-84
2022/03/13 02:32:55;;;;;;;26.40;10.65;;;;;;;-2.77;47.83;98626.63;1684902;85;21062;-84
2022/03/13 02:35:22;;;;;;;21.33;10.23;;;;;;;-2.79;47.76;98623.58;1684852;85;21059;-84
2022/03/13 02:37:49;;;;;;;20.35;10.18;;;;;;;-2.82;47.77;98622.16;1684648;85;21520;-84
2022/03/13 02:40:25;;;;;;;22.45;9.75;;;;;;;-2.77;47.48;98621.44;1684787;85;21006;-84
2022/03/13 02:42:55;;;;;;;21.75;11.03;;;;;;;-2.85;47.63;98620.78;1684813;85;21031;-84
2022/03/13 02:45:35;;;;;;;22.02;11.03;;;;;;;-2.85;47.75;98607.81;1684806;85;21080;-84
2022/03/13 02:48:06;;;;;;;23.70;10.05;;;;;;;-2.84;47.62;98619.05;1684666;85;21018;-84
2022/03/13 02:50:34;;;;;;;18.92;10.28;;;;;;;-2.85;47.78;98613.00;1684776;85;21082;-83
2022/03/13 02:53:02;;;;;;;27.73;12.33;;;;;;;-2.82;47.82;98618.70;1684646;85;21528;-84
2022/03/13 02:55:29;;;;;;;22.77;11.43;;;;;;;-2.86;48.18;98622.88;1684674;85;21074;-83
2022/03/13 02:57:56;;;;;;;24.75;11.12;;;;;;;-2.81;47.96;98620.46;1700792;83;21025;-83
2022/03/13 03:00:46;;;;;;;23.50;11.20;;;;;;;-2.77;47.73;98617.14;1722264;83;21476;-83
2022/03/13 03:03:16;;;;;;;22.10;11.22;;;;;;;-2.73;48.06;98612.94;1685318;85;21450;-82
2022/03/13 03:05:43;;;;;;;19.60;10.55;;;;;;;-2.67;47.42;98611.44;1672587;86;21076;-83
2022/03/13 03:08:10;;;;;;;23.02;11.12;;;;;;;-2.66;47.36;98610.59;1685102;85;21036;-82
2022/03/13 03:10:38;;;;;;;24.47;11.43;;;;;;;-2.64;47.80;98613.25;1673431;86;21063;-82
2022/03/13 03:13:14;;;;;;;19.90;8.93;;;;;;;-2.65;47.73;98608.89;1685407;85;20993;-83
2022/03/13 03:15:39;;;;;;;23.30;10.05;;;;;;;-2.61;47.38;98612.47;1672205;86;21458;-84
2022/03/13 03:18:12;;;;;;;21.80;10.00;;;;;;;-2.60;47.30;98607.33;1685397;85;21040;-83
2022/03/13 03:20:39;;;;;;;19.92;9.63;;;;;;;-2.60;47.15;98603.84;1673216;86;21481;-83
2022/03/13 03:23:06;;;;;;;21.80;9.48;;;;;;;-2.57;47.23;98601.36;1685017;85;21450;-83
2022/03/13 03:25:33;;;;;;;17.50;9.20;;;;;;;-2.58;47.25;98604.36;1684732;85;21015;-83
2022/03/13 03:28:00;;;;;;;18.62;9.58;;;;;;;-2.55;46.91;98600.98;1689505;84;21080;-83
2022/03/13 03:30:29;;;;;;;19.62;8.95;;;;;;;-2.54;47.00;98598.84;1689489;84;21445;-83
2022/03/13 03:32:59;;;;;;;18.52;9.23;;;;;;;-2.55;46.83;98600.58;1689627;85;20996;-83
2022/03/13 03:35:26;;;;;;;17.00;8.85;;;;;;;-2.56;46.71;98597.52;1689131;84;21442;-83
2022/03/13 03:37:55;;;;;;;16.42;7.87;;;;;;;-2.53;46.49;98595.44;1689394;84;21020;-83
2022/03/13 03:40:28;;;;;;;16.97;8.38;;;;;;;-2.58;46.64;98585.33;1689468;84;21437;-83
2022/03/13 03:43:00;;;;;;;18.00;8.08;;;;;;;-2.54;46.50;98588.06;1689333;84;21453;-82
2022/03/13 03:45:27;;;;;;;14.07;8.03;;;;;;;-2.52;46.23;98586.38;1689413;84;21104;-83
2022/03/13 03:47:54;;;;;;;15.90;8.03;;;;;;;-2.47;46.17;98590.84;1694734;84;21014;-83
2022/03/13 03:50:21;;;;;;;16.02;7.80;;;;;;;-2.48;45.99;98594.28;1711971;84;21007;-83
2022/03/13 03:52:49;;;;;;;17.65;8.10;;;;;;;-2.46;46.07;98587.44;1712222;84;20966;-83
2022/03/13 03:55:16;;;;;;;14.07;7.62;;;;;;;-2.42;46.06;98593.17;1712071;83;20991;-83
2022/03/13 03:57:44;;;;;;;15.68;8.05;;;;;;;-2.39;45.93;98591.98;1712398;84;21046;-82
2022/03/13 04:00:12;;;;;;;13.75;7.33;;;;;;;-2.36;45.95;98590.79;1712275;84;21089;-83
2022/03/13 04:02:43;;;;;;;16.45;7.62;;;;;;;-2.37;46.04;98597.23;1712031;84;20958;-83
2022/03/13 04:05:11;;;;;;;23.02;8.58;;;;;;;-2.39;46.10;98595.88;1712037;84;21073;-83
2022/03/13 04:07:38;;;;;;;18.45;8.60;;;;;;;-2.35;45.98;98595.55;1712216;84;20967;-82
2022/03/13 04:10:07;;;;;;;18.48;8.23;;;;;;;-2.33;46.03;98588.27;1712236;84;21452;-82
2022/03/13 04:12:34;;;;;;;12.95;7.10;;;;;;;-2.30;45.91;98581.89;1708890;84;21400;-82
2022/03/13 04:15:06;;;;;;;15.85;8.05;;;;;;;-2.30;46.07;98588.38;1689381;84;21064;-82
2022/03/13 04:17:33;;;;;;;15.65;7.17;;;;;;;-2.29;45.89;98586.24;1689340;85;21459;-82
2022/03/13 04:20:00;;;;;;;13.50;7.33;;;;;;;-2.24;45.61;98584.21;1703049;84;21129;-82
2022/03/13 04:22:28;;;;;;;13.30;6.90;;;;;;;-2.25;45.58;98582.02;1712174;84;20998;-82
2022/03/13 04:24:54;;;;;;;13.55;6.75;;;;;;;-2.23;45.68;98577.77;1711909;84;21053;-82
2022/03/13 04:27:22;;;;;;;16.40;6.58;;;;;;;-2.21;45.48;98568.30;1718103;83;21475;-84
2022/03/13 04:29:49;;;;;;;15.40;6.80;;;;;;;-2.19;45.41;98577.44;1722047;83;21053;-84
2022/03/13 04:32:21;;;;;;;15.80;7.50;;;;;;;-2.18;45.38;98572.30;1722051;83;21479;-84
2022/03/13 04:34:44;;;;;;;17.00;7.05;;;;;;;-2.14;45.22;98574.56;1721305;83;21057;-85
2022/03/13 04:37:11;;;;;;;14.60;7.15;;;;;;;-2.13;45.20;98571.13;1722112;83;21018;-84
2022/03/13 04:39:38;;;;;;;15.10;7.15;;;;;;;-2.09;45.35;98566.50;1686350;83;20983;-85
2022/03/13 04:42:06;;;;;;;14.07;7.33;;;;;;;-2.14;45.51;98571.97;1684686;85;21490;-85
2022/03/13 04:44:33;;;;;;;11.45;6.33;;;;;;;-2.15;45.43;98567.18;1684448;85;21058;-83
2022/03/13 04:47:01;;;;;;;15.88;7.15;;;;;;;-2.13;45.47;98562.04;1684713;85;21547;-83
2022/03/13 04:49:29;;;;;;;14.65;6.78;;;;;;;-2.15;45.52;98568.92;1684608;85;21066;-83
2022/03/13 04:51:55;;;;;;;17.10;7.87;;;;;;;-2.09;45.31;98576.89;1684517;84;21531;-83
2022/03/13 04:54:24;;;;;;;13.80;7.42;;;;;;;-2.05;45.28;98570.95;1684596;85;21543;-83
2022/03/13 04:56:51;;;;;;;15.08;6.97;;;;;;;-2.06;45.39;98569.20;1684488;85;21034;-82
2022/03/13 04:59:18;;;;;;;16.60;7.37;;;;;;;-2.03;45.26;98570.57;1684571;85;21018;-82
2022/03/13 05:01:44;;;;;;;15.53;8.20;;;;;;;-2.01;45.28;98571.52;1684598;85;21046;-82
2022/03/13 05:04:11;;;;;;;18.48;8.00;;;;;;;-1.98;45.23;98570.73;1711213;83;21018;-82
2022/03/13 05:06:41;;;;;;;16.55;7.62;;;;;;;-1.94;45.17;98576.89;1721632;83;21049;-83
2022/03/13 05:09:06;;;;;;;11.08;6.67;;;;;;;-1.91;45.49;98574.39;1721630;83;21506;-83
2022/03/13 05:11:33;;;;;;;18.87;8.80;;;;;;;-1.87;45.33;98577.11;1721941;82;21446;-83
2022/03/13 05:14:00;;;;;;;18.65;9.50;;;;;;;-1.83;45.31;98575.92;1721998;83;21025;-83
2022/03/13 05:16:26;;;;;;;19.37;9.13;;;;;;;-1.87;45.46;98577.55;1722030;83;21070;-83
2022/03/13 05:18:53;;;;;;;18.87;8.63;;;;;;;-1.83;45.30;98579.81;1722186;83;21002;-83
2022/03/13 05:21:19;;;;;;;17.73;8.13;;;;;;;-1.80;45.47;98578.18;1722017;83;21042;-83
2022/03/13 05:23:46;;;;;;;17.30;8.93;;;;;;;-1.74;45.33;98587.88;1722174;83;21395;-83
2022/03/13 05:26:13;;;;;;;19.82;8.68;;;;;;;-1.72;45.18;98588.80;1721960;83;21017;-83
2022/03/13 05:28:40;;;;;;;14.68;7.45;;;;;;;-1.69;45.30;98590.20;1703922;83;21049;-84
2022/03/13 05:31:06;;;;;;;17.55;8.30;;;;;;;-1.64;45.14;98586.41;1684974;83;21086;-84
2022/03/13 05:33:35;;;;;;;15.72;8.53;;;;;;;-1.61;45.09;98586.52;1684596;85;21531;-84
2022/03/13 05:36:01;;;;;;;17.12;7.83;;;;;;;-1.57;45.02;98593.57;1684656;85;21034;-83
2022/03/13 05:38:28;;;;;;;15.72;8.43;;;;;;;-1.50;44.92;98598.09;1684752;85;20978;-84
2022/03/13 05:40:55;;;;;;;17.50;8.55;;;;;;;-1.49;44.86;98592.05;1684507;85;21086;-83
2022/03/13 05:43:25;;;;;;;16.70;7.78;;;;;;;-1.47;44.72;98596.89;1675667;85;21411;-83
2022/03/13 05:45:52;;;;;;;15.18;7.95;;;;;;;-1.40;44.62;98597.05;1676388;85;21052;-84
2022/03/13 05:48:18;;;;;;;17.20;8.43;;;;;;;-1.38;44.78;98597.97;1692794;85;20985;-83
2022/03/13 05:50:46;;;;;;;14.55;8.20;;;;;;;-1.36;44.62;98588.51;1692884;85;21024;-84
2022/03/13 05:53:15;;;;;;;18.87;8.53;;;;;;;-1.30;44.53;98589.97;1696377;83;21033;-83
2022/03/13 05:55:41;;;;;;;17.20;7.47;;;;;;;-1.26;44.53;98597.02;1721458;83;21434;-84
2022/03/13 05:58:08;;;;;;;19.55;8.18;;;;;;;-1.16;44.54;98592.94;1722244;83;20994;-83
2022/03/13 06:00:39;;;;;;;17.02;7.92;;;;;;;-1.06;44.33;98594.08;1722203;83;21053;-84
2022/03/13 06:03:04;;;;;;;19.10;7.67;;;;;;;-1.05;44.15;98594.53;1721674;83;21042;-83
2022/03/13 06:05:35;;;;;;;16.67;8.08;;;;;;;-1.06;44.04;98590.17;1722147;83;21009;-83
2022/03/13 06:08:00;;;;;;;18.40;9.13;;;;;;;-1.03;44.09;98592.88;1721856;83;21571;-83
2022/03/13 06:10:27;;;;;;;15.55;7.55;;;;;;;-0.99;44.14;98597.73;1722081;83;21075;-83
2022/03/13 06:12:53;;;;;;;19.87;8.90;;;;;;;-0.92;43.99;98596.17;1722300;83;20982;-83
2022/03/13 06:15:20;;;;;;;16.20;7.92;;;;;;;-0.89;43.82;98597.53;1722229;83;21018;-83
2022/03/13 06:17:49;;;;;;;13.83;7.67;;;;;;;-0.90;43.78;98599.28;1721343;83;21053;-83
2022/03/13 06:20:17;;;;;;;17.35;8.18;;;;;;;-0.84;43.64;98605.94;1684872;83;21041;-83
2022/03/13 06:22:47;;;;;;;19.98;8.40;;;;;;;-0.83;43.73;98605.09;1684575;84;21066;-83
2022/03/13 06:25:16;;;;;;;19.37;8.55;;;;;;;-0.74;43.84;98610.08;1684706;85;21034;-83
2022/03/13 06:27:44;;;;;;;19.48;8.35;;;;;;;-0.64;43.72;98614.67;1694476;83;20981;-84
2022/03/13 06:30:14;;;;;;;18.92;7.42;;;;;;;-0.60;43.62;98610.41;1693691;84;21036;-83
2022/03/13 06:32:50;;;;;;;19.85;8.85;;;;;;;-0.53;43.66;98616.25;1693114;85;21013;-83
2022/03/13 06:35:21;;;;;;;14.40;7.87;;;;;;;-0.42;43.71;98616.09;1693067;85;21021;-84
2022/03/13 06:37:49;;;;;;;14.78;7.92;;;;;;;-0.30;43.70;98613.31;1696365;84;21019;-84
2022/03/13 06:40:19;;;;;;;18.70;8.63;;;;;;;-0.18;43.64;98617.94;1699042;84;21056;-84
2022/03/13 06:42:48;;;;;;;16.85;8.40;;;;;;;-0.05;43.50;98614.78;1699029;84;21024;-84
2022/03/13 06:45:15;;;;;;;17.35;8.45;;;;;;;0.04;43.19;98614.10;1698978;84;21105;-84
2022/03/13 06:47:47;;;;;;;18.30;8.60;;;;;;;0.08;42.87;98612.47;1699180;84;20988;-84
2022/03/13 06:50:17;;;;;;;16.37;8.73;;;;;;;0.12;42.85;98612.97;1699075;84;21454;-84
2022/03/13 06:52:45;;;;;;;20.02;10.45;;;;;;;0.09;42.82;98617.69;1699571;84;21048;-84
2022/03/13 06:55:14;;;;;;;15.93;8.50;;;;;;;0.15;42.70;98615.66;1702097;81;21043;-84
2022/03/13 06:57:43;;;;;;;18.00;9.20;;;;;;;0.25;42.79;98623.27;1699163;82;20966;-85
2022/03/13 07:00:12;;;;;;;19.00;9.15;;;;;;;0.34;42.62;98617.38;1694190;85;21044;-84
2022/03/13 07:02:39;;;;;;;20.50;9.83;;;;;;;0.37;42.16;98610.89;1693250;85;22098;-85
2022/03/13 07:05:08;;;;;;;20.20;9.33;;;;;;;0.38;42.19;98610.08;1693120;85;21414;-85
2022/03/13 07:07:35;;;;;;;17.90;9.00;;;;;;;0.45;42.45;98606.73;1693280;85;20984;-85
2022/03/13 07:10:01;;;;;;;17.30;8.95;;;;;;;0.58;42.44;98593.52;1693160;85;21024;-85
2022/03/13 07:12:28;;;;;;;20.15;9.00;;;;;;;0.70;42.05;98598.09;1693009;85;20984;-85
2022/03/13 07:14:57;;;;;;;18.52;9.35;;;;;;;0.77;41.63;98598.69;1693127;85;21009;-85
2022/03/13 07:17:24;;;;;;;17.80;9.03;;;;;;;0.90;41.86;98599.80;1675075;84;21029;-85
2022/03/13 07:19:51;;;;;;;17.85;8.50;;;;;;;1.04;41.42;98604.41;1698956;84;21017;-84
2022/03/13 07:22:18;;;;;;;17.40;8.03;;;;;;;1.13;41.07;98599.33;1699168;84;21456;-84
2022/03/13 07:24:47;;;;;;;17.02;8.73;;;;;;;1.28;40.78;98598.74;1699050;84;21041;-85
2022/03/13 07:27:15;;;;;;;17.37;8.43;;;;;;;1.42;40.14;98595.05;1698122;84;21562;-86
2022/03/13 07:29:42;;;;;;;17.07;8.20;;;;;;;1.54;40.06;98600.05;1659479;86;21017;-85
2022/03/13 07:32:11;;;;;;;13.78;6.80;;;;;;;1.63;39.63;98594.08;1659472;86;20965;-85
2022/03/13 07:34:37;;;;;;;12.60;7.03;;;;;;;1.78;38.92;98605.22;1659035;86;21037;-85
2022/03/13 07:37:05;;;;;;;11.90;6.10;;;;;;;1.89;38.75;98593.19;1698304;83;22228;-85
2022/03/13 07:39:31;;;;;;;12.18;5.72;;;;;;;2.06;37.64;98605.20;1686061;85;21354;-85
2022/03/13 07:41:58;;;;;;;11.08;5.62;;;;;;;2.18;38.39;98601.89;1687074;84;21001;-86
2022/03/13 07:44:25;;;;;;;8.33;4.83;;;;;;;2.32;37.39;98598.59;1687261;85;21502;-86
2022/03/13 07:46:53;;;;;;;9.20;5.35;;;;;;;2.41;37.03;98599.98;1686969;85;21439;-86
2022/03/13 07:49:19;;;;;;;8.00;4.53;;;;;;;2.54;36.36;98593.20;1693918;84;21042;-86
2022/03/13 07:51:47;;;;;;;9.10;4.45;;;;;;;2.63;34.65;98597.21;1695223;85;21030;-85
2022/03/13 07:54:15;;;;;;;5.55;3.75;;;;;;;2.63;34.99;98597.66;1695166;85;20978;-85
2022/03/13 07:56:42;;;;;;;6.92;4.20;;;;;;;2.66;35.18;98601.64;1695451;85;21074;-84
2022/03/13 07:59:09;;;;;;;5.67;3.30;;;;;;;2.73;34.13;98601.25;1695185;85;22170;-85
2022/03/13 08:01:35;;;;;;;7.85;3.90;;;;;;;2.64;32.71;98599.41;1695278;85;20994;-85
2022/03/13 08:04:07;;;;;;;10.55;5.67;;;;;;;2.70;33.15;98597.31;1689269;85;20989;-85
2022/03/13 08:06:35;;;;;;;7.08;4.08;;;;;;;2.85;33.55;98601.83;1687125;85;21024;-85
2022/03/13 08:09:04;;;;;;;11.12;5.92;;;;;;;2.84;32.10;98601.39;1687017;85;20990;-84
2022/03/13 08:11:34;;;;;;;10.35;6.10;;;;;;;3.02;33.27;98598.08;1687113;85;20993;-83
2022/03/13 08:14:03;;;;;;;7.28;4.53;;;;;;;3.16;33.13;98599.56;1687231;84;20993;-83
2022/03/13 08:16:31;;;;;;;6.75;3.90;;;;;;;3.29;32.86;98601.86;1687141;85;21032;-83
2022/03/13 08:18:57;;;;;;;7.72;4.15;;;;;;;3.36;32.34;98604.11;1686990;85;21056;-83
2022/03/13 08:21:24;;;;;;;8.33;4.78;;;;;;;3.41;32.28;98603.27;1687071;84;21017;-83
2022/03/13 08:23:50;;;;;;;8.33;4.22;;;;;;;3.46;33.02;98611.61;1687109;84;21029;-83
2022/03/13 08:26:17;;;;;;;8.28;4.15;;;;;;;3.54;32.88;98617.81;1687186;84;21017;-83
2022/03/13 08:28:44;;;;;;;7.67;4.45;;;;;;;3.62;32.69;98612.63;1686324;84;20981;-83
2022/03/13 08:31:14;;;;;;;7.25;3.98;;;;;;;3.65;31.25;98619.22;1689159;84;21005;-83
2022/03/13 08:33:43;;;;;;;7.85;4.40;;;;;;;3.70;32.32;98615.75;1687552;84;20993;-83
2022/03/13 08:36:13;;;;;;;6.40;4.75;;;;;;;3.64;31.02;98630.55;1679373;84;21000;-85
2022/03/13 08:38:40;;;;;;;7.45;4.30;;;;;;;3.66;31.83;98629.69;1675581;85;21202;-84
2022/03/13 08:41:07;;;;;;;8.75;4.30;;;;;;;3.56;30.79;98626.55;1683435;84;20965;-86
2022/03/13 08:43:33;;;;;;;6.92;4.20;;;;;;;3.53;31.62;98621.30;1691303;83;21404;-86
2022/03/13 08:46:00;;;;;;;6.53;3.80;;;;;;;3.63;31.49;98614.37;1691192;84;21003;-86
2022/03/13 08:48:28;;;;;;;7.10;4.35;;;;;;;3.82;31.99;98624.15;1692443;83;20997;-86
2022/03/13 08:50:56;;;;;;;6.92;3.92;;;;;;;4.01;31.67;98624.71;1690268;84;21012;-86
2022/03/13 08:53:23;;;;;;;11.65;4.20;;;;;;;4.03;30.08;98617.30;1686372;83;21030;-86
2022/03/13 08:55:50;;;;;;;12.85;4.28;;;;;;;4.21;31.77;98607.81;1691947;84;20970;-86
2022/03/13 08:58:17;;;;;;;7.28;4.22;;;;;;;4.34;30.95;98613.58;1700285;84;21454;-86
2022/03/13 09:00:44;;;;;;;7.15;4.42;;;;;;;4.45;31.46;98610.98;1687482;83;20984;-84
2022/03/13 09:03:11;;;;;;;8.08;4.30;;;;;;;4.61;31.50;98609.32;1678830;84;21017;-83
2022/03/13 09:05:38;;;;;;;6.53;4.30;;;;;;;4.77;31.42;98604.58;1683144;84;21001;-83
2022/03/13 09:08:05;;;;;;;6.58;3.60;;;;;;;4.93;31.01;98609.00;1690188;84;21014;-83
2022/03/13 09:10:32;;;;;;;7.15;3.92;;;;;;;5.05;31.16;98607.27;1690271;84;20994;-83
2022/03/13 09:12:59;;;;;;;7.17;4.33;;;;;;;5.16;30.94;98608.20;1689971;84;20994;-82
2022/03/13 09:15:27;;;;;;;6.85;4.17;;;;;;;4.96;29.24;98606.39;1690595;84;21723;-82
2022/03/13 09:17:54;;;;;;;6.20;4.20;;;;;;;4.80;29.46;98609.40;1691822;83;21077;-83
2022/03/13 09:20:24;;;;;;;6.20;3.92;;;;;;;4.82;29.93;98604.16;1690827;84;20978;-83
2022/03/13 09:22:50;;;;;;;6.95;3.85;;;;;;;4.86;28.83;98611.19;1686202;84;21081;-83
2022/03/13 09:25:18;;;;;;;6.58;4.10;;;;;;;4.78;28.97;98610.27;1681465;85;21040;-83
2022/03/13 09:27:45;;;;;;;7.10;4.33;;;;;;;4.85;28.92;98605.04;1683260;85;21503;-84
2022/03/13 09:30:13;;;;;;;10.23;4.92;;;;;;;4.80;28.77;98616.39;1692643;84;20993;-85
2022/03/13 09:32:44;;;;;;;7.17;4.75;;;;;;;4.62;27.96;98622.88;1693819;83;21498;-84
2022/03/13 09:35:13;;;;;;;8.88;4.83;;;;;;;4.72;29.34;98602.81;1691999;84;21195;-84
2022/03/13 09:37:41;;;;;;;10.98;5.05;;;;;;;4.79;28.84;98598.46;1692811;84;21019;-84
2022/03/13 09:40:10;;;;;;;10.30;5.15;;;;;;;4.84;28.63;98601.98;1693167;84;21101;-84
2022/03/13 09:42:38;;;;;;;8.75;4.78;;;;;;;4.69;27.05;98610.66;1695169;84;21029;-84
2022/03/13 09:45:06;;;;;;;9.93;5.12;;;;;;;4.75;28.25;98607.20;1696674;84;21541;-84
2022/03/13 09:47:32;;;;;;;9.98;5.03;;;;;;;4.48;27.15;98611.44;1676077;84;21008;-83
2022/03/13 09:49:59;;;;;;;7.65;5.45;;;;;;;4.50;28.18;98613.66;1688511;84;21020;-83
2022/03/13 09:52:27;;;;;;;10.32;5.28;;;;;;;4.35;27.78;98606.14;1681089;84;21027;-85
2022/03/13 09:54:54;;;;;;;10.63;4.75;;;;;;;4.46;27.84;98617.12;1690211;84;20969;-83
2022/03/13 09:57:20;;;;;;;8.70;4.70;;;;;;;4.64;27.46;98601.89;1682888;84;21001;-83
2022/03/13 09:59:47;;;;;;;10.95;5.65;;;;;;;4.84;28.13;98591.89;1687006;84;20993;-82
2022/03/13 10:02:14;;;;;;;10.53;4.97;;;;;;;5.04;27.39;98613.41;1681729;84;20997;-82
2022/03/13 10:04:40;;;;;;;9.35;5.40;;;;;;;5.22;27.93;98591.55;1691215;84;21442;-82
2022/03/13 10:07:10;;;;;;;8.00;4.95;;;;;;;5.42;27.46;98591.59;1689656;83;21029;-83
2022/03/13 10:09:41;;;;;;;9.95;5.20;;;;;;;5.45;27.10;98578.45;1699983;84;21412;-86
2022/03/13 10:12:16;;;;;;;10.93;5.70;;;;;;;5.23;26.23;98575.78;1673251;84;21048;-86
2022/03/13 10:15:05;;;;;;;9.53;5.37;;;;;;;5.33;27.08;98567.91;1689990;84;20956;-81
2022/03/13 10:17:38;;;;;;;6.53;3.98;;;;;;;5.41;27.37;98572.75;1689351;85;21031;-86
2022/03/13 10:20:23;;;;;;;8.20;4.12;;;;;;;5.13;25.95;98588.47;1681826;84;21049;-85
2022/03/13 10:23:09;;;;;;;7.67;4.35;;;;;;;4.93;26.40;98564.77;1687617;84;20967;-85
2022/03/13 10:25:39;;;;;;;7.37;4.08;;;;;;;4.96;26.51;98568.73;1686295;84;20981;-84
2022/03/13 10:28:31;;;;;;;7.15;4.20;;;;;;;4.80;26.55;98566.06;1689607;83;21007;-84
2022/03/13 10:31:06;;;;;;;7.70;4.15;;;;;;;4.80;27.16;98558.19;1664084;86;21016;-85
2022/03/13 10:33:54;;;;;;;7.72;4.35;;;;;;;4.94;26.70;98560.84;1661423;85;21079;-85
2022/03/13 10:36:33;;;;;;;8.20;4.40;;;;;;;4.98;26.37;98561.29;1665031;86;21027;-84
2022/03/13 10:39:07;;;;;;;9.60;6.22;;;;;;;5.14;27.28;98551.70;1656141;84;20991;-82
2022/03/13 10:41:47;;;;;;;32.23;16.35;;;;;;;5.24;26.40;98550.39;1711706;83;20981;-87
2022/03/13 10:44:21;;;;;;;8.70;5.40;;;;;;;5.31;27.53;98548.20;1688938;83;21040;-85
2022/03/13 10:47:03;;;;;;;21.00;9.48;;;;;;;5.53;27.29;98548.22;1700867;83;21419;-81
2022/03/13 10:49:44;;;;;;;11.03;5.47;;;;;;;6.06;27.24;98544.21;1648233;86;21079;-86
2022/03/13 10:52:41;;;;;;;35.38;30.45;;;;;;;7.29;25.53;98534.41;1702059;83;20977;-85
2022/03/13 10:55:21;;;;;;;8.10;4.62;;;;;;;8.68;24.80;98525.10;1677108;84;21005;-84
2022/03/13 10:57:58;;;;;;;10.98;5.70;;;;;;;10.29;23.96;98517.59;1703350;83;20964;-85
2022/03/13 11:00:25;;;;;;;11.30;6.37;;;;;;;11.21;20.27;98524.92;1696761;83;21054;-85
2022/03/13 11:02:53;;;;;;;9.78;6.00;;;;;;;12.31;20.87;98515.53;1696702;83;20985;-84
2022/03/13 11:05:20;;;;;;;9.93;5.53;;;;;;;12.89;18.53;98514.73;1708170;83;21429;-84
2022/03/13 11:07:46;;;;;;;7.55;4.72;;;;;;;13.85;19.09;98499.68;1713216;83;21477;-85
2022/03/13 11:10:13;;;;;;;6.70;5.03;;;;;;;14.13;18.24;98496.50;1701902;83;20976;-84
2022/03/13 11:12:40;;;;;;;11.45;6.83;;;;;;;14.37;17.55;98495.19;1710298;84;21489;-82
2022/03/13 11:15:11;;;;;;;7.28;5.00;;;;;;;14.60;18.77;98490.32;1707904;83;21383;-81
2022/03/13 11:17:40;;;;;;;7.00;4.67;;;;;;;15.16;17.19;98489.50;1705688;83;21405;-83
2022/03/13 11:20:09;;;;;;;7.60;4.33;;;;;;;16.29;17.50;98500.86;1705308;83;21009;-83
2022/03/13 11:22:36;;;;;;;6.72;4.50;;;;;;;16.62;15.10;98490.91;1714342;83;21067;-82
2022/03/13 11:25:07;;;;;;;6.25;4.53;;;;;;;16.39;14.38;98483.45;1707142;83;21001;-82
2022/03/13 11:27:37;;;;;;;6.92;4.60;;;;;;;16.34;14.03;98478.33;1705732;83;21427;-82
2022/03/13 11:30:06;;;;;;;5.75;3.92;;;;;;;16.70;14.61;98474.48;1709509;83;21017;-83
2022/03/13 11:32:46;;;;;;;7.05;4.37;;;;;;;17.13;13.92;98488.53;1704161;83;20980;-83
2022/03/13 11:35:18;;;;;;;5.05;3.70;;;;;;;17.47;14.65;98482.42;1707966;83;21410;-81
2022/03/13 11:38:08;;;;;;;5.67;4.30;;;;;;;16.62;14.23;98484.22;1701551;83;21043;-81